sensor_id;sensor_type;location;lat;lon;timestamp;pressure;altitude;pressure_sealevel;temperature;humidity
58534;BME280;44109;52.398;7.024;2023-07-28T00:02:26;100186.16;;;18.95;100.00
58534;BME280;44109;52.398;7.024;2023-07-28T00:04:54;100174.72;;;19.02;100.00
58534;BME280;44109;52.398;7.024;2023-07-28T00:07:21;100179.81;;;19.08;100.00
58534;BME280;44109;52.398;7.024;2023-07-28T00:09:49;100168.75;;;19.00;100.00
58534;BME280;44109;52.398;7.024;2023-07-28T00:12:17;100182.81;;;19.00;100.00
58534;BME280;44109;52.398;7.024;2023-07-28T00:14:46;100180.53;;;18.95;100.00
58534;BME280;44109;52.398;7.024;2023-07-28T00:17:13;100179.38;;;19.09;100.00
58534;BME280;44109;52.398;7.024;2023-07-28T00:19:41;100179.38;;;19.09;100.00
58534;BME280;44109;52.398;7.024;2023-07-28T00:22:08;100182.19;;;19.09;100.00
58534;BME280;44109;52.398;7.024;2023-07-28T00:24:36;100168.91;;;19.10;100.00
58534;BME280;44109;52.398;7.024;2023-07-28T00:27:04;100175.13;;;19.17;100.00
58534;BME280;44109;52.398;7.024;2023-07-28T00:29:32;100179.28;;;19.13;100.00
58534;BME280;44109;52.398;7.024;2023-07-28T00:32:01;100179.59;;;19.15;100.00
58534;BME280;44109;52.398;7.024;2023-07-28T00:34:29;100168.81;;;19.13;100.00
58534;BME280;44109;52.398;7.024;2023-07-28T00:36:56;100171.88;;;19.19;100.00
58534;BME280;44109;52.398;7.024;2023-07-28T00:39:24;100167.59;;;18.98;100.00
58534;BME280;44109;52.398;7.024;2023-07-28T00:41:51;100164.84;;;19.11;100.00
58534;BME280;44109;52.398;7.024;2023-07-28T00:44:19;100163.47;;;19.02;100.00
58534;BME280;44109;52.398;7.024;2023-07-28T00:46:47;100152.91;;;19.07;100.00
58534;BME280;44109;52.398;7.024;2023-07-28T00:49:17;100164.16;;;19.07;100.00
58534;BME280;44109;52.398;7.024;2023-07-28T00:51:44;100160.66;;;19.02;100.00
58534;BME280;44109;52.398;7.024;2023-07-28T00:54:13;100161.16;;;19.14;100.00
58534;BME280;44109;52.398;7.024;2023-07-28T00:56:42;100158.69;;;19.16;100.00
58534;BME280;44109;52.398;7.024;2023-07-28T00:59:09;100151.63;;;19.24;100.00
58534;BME280;44109;52.398;7.024;2023-07-28T01:01:37;100159.75;;;19.22;100.00
58534;BME280;44109;52.398;7.024;2023-07-28T01:04:05;100152.22;;;19.32;100.00
58534;BME280;44109;52.398;7.024;2023-07-28T01:06:40;100163.38;;;19.35;100.00
58534;BME280;44109;52.398;7.024;2023-07-28T01:09:17;100155.69;;;19.23;100.00
58534;BME280;44109;52.398;7.024;2023-07-28T01:11:54;100165.94;;;19.00;100.00
58534;BME280;44109;52.398;7.024;2023-07-28T01:14:21;100158.59;;;19.19;100.00
58534;BME280;44109;52.398;7.024;2023-07-28T01:16:49;100158.84;;;19.25;100.00
58534;BME280;44109;52.398;7.024;2023-07-28T01:19:20;100162.78;;;19.27;100.00
58534;BME280;44109;52.398;7.024;2023-07-28T01:21:54;100163.66;;;19.24;100.00
58534;BME280;44109;52.398;7.024;2023-07-28T01:24:42;100157.94;;;19.28;100.00
58534;BME280;44109;52.398;7.024;2023-07-28T01:27:20;100167.41;;;19.34;100.00
58534;BME280;44109;52.398;7.024;2023-07-28T01:29:48;100167.75;;;19.36;100.00
58534;BME280;44109;52.398;7.024;2023-07-28T01:32:16;100161.09;;;19.30;100.00
58534;BME280;44109;52.398;7.024;2023-07-28T01:34:44;100164.44;;;19.25;100.00
58534;BME280;44109;52.398;7.024;2023-07-28T01:37:11;100163.56;;;19.28;100.00
58534;BME280;44109;52.398;7.024;2023-07-28T01:39:39;100164.25;;;19.32;100.00
58534;BME280;44109;52.398;7.024;2023-07-28T01:42:07;100168.88;;;19.26;100.00
58534;BME280;44109;52.398;7.024;2023-07-28T01:44:35;100175.97;;;19.31;100.00
58534;BME280;44109;52.398;7.024;2023-07-28T01:47:03;100163.66;;;19.24;100.00
58534;BME280;44109;52.398;7.024;2023-07-28T01:49:31;100186.41;;;19.30;100.00
58534;BME280;44109;52.398;7.024;2023-07-28T01:51:59;100175.59;;;19.29;100.00
58534;BME280;44109;52.398;7.024;2023-07-28T01:54:26;100176.72;;;19.18;100.00
58534;BME280;44109;52.398;7.024;2023-07-28T01:56:54;100191.31;;;19.13;100.00
58534;BME280;44109;52.398;7.024;2023-07-28T01:59:21;100196.69;;;19.08;100.00
58534;BME280;44109;52.398;7.024;2023-07-28T02:01:51;100190.41;;;19.16;100.00
58534;BME280;44109;52.398;7.024;2023-07-28T02:04:18;100202.19;;;19.11;100.00
58534;BME280;44109;52.398;7.024;2023-07-28T02:06:46;100198.59;;;19.11;100.00
58534;BME280;44109;52.398;7.024;2023-07-28T02:09:13;100197.91;;;19.07;100.00
58534;BME280;44109;52.398;7.024;2023-07-28T02:11:41;100194.91;;;19.14;100.00
58534;BME280;44109;52.398;7.024;2023-07-28T02:14:09;100199.19;;;19.18;100.00
58534;BME280;44109;52.398;7.024;2023-07-28T02:16:36;100200.97;;;19.12;100.00
58534;BME280;44109;52.398;7.024;2023-07-28T02:19:05;100207.75;;;18.98;100.00
58534;BME280;44109;52.398;7.024;2023-07-28T02:21:34;100201.34;;;18.98;100.00
58534;BME280;44109;52.398;7.024;2023-07-28T02:24:01;100203.78;;;19.12;100.00
58534;BME280;44109;52.398;7.024;2023-07-28T02:26:29;100197.19;;;19.02;100.00
58534;BME280;44109;52.398;7.024;2023-07-28T02:28:56;100201.72;;;19.00;100.00
58534;BME280;44109;52.398;7.024;2023-07-28T02:31:24;100206.53;;;18.99;100.00
58534;BME280;44109;52.398;7.024;2023-07-28T02:33:51;100212.69;;;18.94;100.00
58534;BME280;44109;52.398;7.024;2023-07-28T02:36:20;100211.00;;;18.97;100.00
58534;BME280;44109;52.398;7.024;2023-07-28T02:38:48;100207.66;;;19.02;100.00
58534;BME280;44109;52.398;7.024;2023-07-28T02:41:15;100214.88;;;19.03;100.00
58534;BME280;44109;52.398;7.024;2023-07-28T02:43:43;100208.81;;;19.05;100.00
58534;BME280;44109;52.398;7.024;2023-07-28T02:46:11;100213.28;;;19.02;100.00
58534;BME280;44109;52.398;7.024;2023-07-28T02:48:38;100208.97;;;19.14;100.00
58534;BME280;44109;52.398;7.024;2023-07-28T02:51:06;100208.75;;;19.21;100.00
58534;BME280;44109;52.398;7.024;2023-07-28T02:53:35;100211.56;;;19.21;100.00
58534;BME280;44109;52.398;7.024;2023-07-28T02:56:02;100207.00;;;19.27;100.00
58534;BME280;44109;52.398;7.024;2023-07-28T02:58:30;100205.22;;;19.33;100.00
58534;BME280;44109;52.398;7.024;2023-07-28T03:00:58;100209.94;;;19.36;100.00
58534;BME280;44109;52.398;7.024;2023-07-28T03:03:25;100214.34;;;19.37;100.00
58534;BME280;44109;52.398;7.024;2023-07-28T03:05:53;100211.84;;;19.26;100.00
58534;BME280;44109;52.398;7.024;2023-07-28T03:08:21;100222.28;;;19.26;100.00
58534;BME280;44109;52.398;7.024;2023-07-28T03:10:49;100212.81;;;19.20;100.00
58534;BME280;44109;52.398;7.024;2023-07-28T03:13:17;100213.31;;;19.31;100.00
58534;BME280;44109;52.398;7.024;2023-07-28T03:15:45;100213.59;;;19.20;100.00
58534;BME280;44109;52.398;7.024;2023-07-28T03:18:12;100210.94;;;19.30;100.00
58534;BME280;44109;52.398;7.024;2023-07-28T03:20:40;100203.97;;;19.34;100.00
58534;BME280;44109;52.398;7.024;2023-07-28T03:23:07;100201.06;;;19.38;100.00
58534;BME280;44109;52.398;7.024;2023-07-28T03:25:35;100210.84;;;19.33;100.00
58534;BME280;44109;52.398;7.024;2023-07-28T03:28:04;100216.22;;;19.27;100.00
58534;BME280;44109;52.398;7.024;2023-07-28T03:30:31;100221.75;;;19.31;100.00
58534;BME280;44109;52.398;7.024;2023-07-28T03:33:35;100210.13;;;19.29;100.00
58534;BME280;44109;52.398;7.024;2023-07-28T03:36:03;100224.44;;;19.35;100.00
58534;BME280;44109;52.398;7.024;2023-07-28T03:38:30;100224.66;;;19.27;100.00
58534;BME280;44109;52.398;7.024;2023-07-28T03:40:58;100221.59;;;19.22;100.00
58534;BME280;44109;52.398;7.024;2023-07-28T03:43:27;100214.50;;;19.17;100.00
58534;BME280;44109;52.398;7.024;2023-07-28T03:45:54;100221.94;;;19.24;100.00
58534;BME280;44109;52.398;7.024;2023-07-28T03:48:22;100234.06;;;19.21;100.00
58534;BME280;44109;52.398;7.024;2023-07-28T03:50:50;100243.03;;;19.16;100.00
58534;BME280;44109;52.398;7.024;2023-07-28T03:53:17;100247.63;;;19.10;100.00
58534;BME280;44109;52.398;7.024;2023-07-28T03:55:45;100253.94;;;19.14;100.00
58534;BME280;44109;52.398;7.024;2023-07-28T03:58:12;100249.13;;;19.14;100.00
58534;BME280;44109;52.398;7.024;2023-07-28T04:00:41;100254.75;;;19.14;100.00
58534;BME280;44109;52.398;7.024;2023-07-28T04:03:09;100247.25;;;19.24;100.00
58534;BME280;44109;52.398;7.024;2023-07-28T04:05:36;100241.06;;;19.29;100.00
58534;BME280;44109;52.398;7.024;2023-07-28T04:08:04;100239.31;;;19.35;100.00
58534;BME280;44109;52.398;7.024;2023-07-28T04:10:32;100243.00;;;19.32;100.00
58534;BME280;44109;52.398;7.024;2023-07-28T04:13:00;100237.97;;;19.40;100.00
58534;BME280;44109;52.398;7.024;2023-07-28T04:15:27;100227.31;;;19.47;100.00
58534;BME280;44109;52.398;7.024;2023-07-28T04:17:56;100232.59;;;19.45;100.00
58534;BME280;44109;52.398;7.024;2023-07-28T04:20:24;100232.66;;;19.58;100.00
58534;BME280;44109;52.398;7.024;2023-07-28T04:22:52;100232.53;;;19.62;100.00
58534;BME280;44109;52.398;7.024;2023-07-28T04:25:19;100237.59;;;19.54;100.00
58534;BME280;44109;52.398;7.024;2023-07-28T04:27:47;100234.31;;;19.56;100.00
58534;BME280;44109;52.398;7.024;2023-07-28T04:30:15;100241.19;;;19.55;100.00
58534;BME280;44109;52.398;7.024;2023-07-28T04:32:42;100234.47;;;19.65;100.00
58534;BME280;44109;52.398;7.024;2023-07-28T04:35:12;100243.72;;;19.65;100.00
58534;BME280;44109;52.398;7.024;2023-07-28T04:37:40;100252.34;;;19.58;100.00
58534;BME280;44109;52.398;7.024;2023-07-28T04:40:08;100255.41;;;19.64;100.00
58534;BME280;44109;52.398;7.024;2023-07-28T04:42:36;100254.38;;;19.58;100.00
58534;BME280;44109;52.398;7.024;2023-07-28T04:45:04;100252.97;;;19.49;100.00
58534;BME280;44109;52.398;7.024;2023-07-28T04:47:32;100267.00;;;19.66;100.00
58534;BME280;44109;52.398;7.024;2023-07-28T04:50:00;100269.72;;;19.69;100.00
58534;BME280;44109;52.398;7.024;2023-07-28T04:52:29;100268.75;;;19.76;100.00
58534;BME280;44109;52.398;7.024;2023-07-28T04:54:56;100260.75;;;19.87;100.00
58534;BME280;44109;52.398;7.024;2023-07-28T04:57:24;100274.22;;;19.67;100.00
58534;BME280;44109;52.398;7.024;2023-07-28T04:59:52;100270.00;;;19.59;100.00
58534;BME280;44109;52.398;7.024;2023-07-28T05:02:19;100264.88;;;19.70;100.00
58534;BME280;44109;52.398;7.024;2023-07-28T05:04:47;100271.00;;;19.81;100.00
58534;BME280;44109;52.398;7.024;2023-07-28T05:07:14;100274.38;;;19.76;100.00
58534;BME280;44109;52.398;7.024;2023-07-28T05:09:43;100274.84;;;19.87;100.00
58534;BME280;44109;52.398;7.024;2023-07-28T05:12:11;100269.41;;;19.80;100.00
58534;BME280;44109;52.398;7.024;2023-07-28T05:14:39;100273.28;;;19.86;100.00
58534;BME280;44109;52.398;7.024;2023-07-28T05:17:07;100272.50;;;19.98;100.00
58534;BME280;44109;52.398;7.024;2023-07-28T05:19:35;100268.31;;;19.90;100.00
58534;BME280;44109;52.398;7.024;2023-07-28T05:22:02;100273.41;;;19.95;100.00
58534;BME280;44109;52.398;7.024;2023-07-28T05:24:32;100282.53;;;19.99;100.00
58534;BME280;44109;52.398;7.024;2023-07-28T05:27:01;100279.06;;;20.08;100.00
58534;BME280;44109;52.398;7.024;2023-07-28T05:29:29;100283.09;;;20.07;100.00
58534;BME280;44109;52.398;7.024;2023-07-28T05:31:58;100280.88;;;20.27;100.00
58534;BME280;44109;52.398;7.024;2023-07-28T05:34:27;100277.41;;;20.36;100.00
58534;BME280;44109;52.398;7.024;2023-07-28T05:36:55;100282.94;;;20.52;100.00
58534;BME280;44109;52.398;7.024;2023-07-28T05:39:22;100278.91;;;20.54;100.00
58534;BME280;44109;52.398;7.024;2023-07-28T05:41:50;100282.03;;;20.56;100.00
58534;BME280;44109;52.398;7.024;2023-07-28T05:44:19;100286.78;;;20.59;100.00
58534;BME280;44109;52.398;7.024;2023-07-28T05:46:47;100288.09;;;20.80;100.00
58534;BME280;44109;52.398;7.024;2023-07-28T05:49:14;100287.56;;;20.59;100.00
58534;BME280;44109;52.398;7.024;2023-07-28T05:51:42;100295.09;;;20.75;100.00
58534;BME280;44109;52.398;7.024;2023-07-28T05:54:09;100288.00;;;20.70;100.00
58534;BME280;44109;52.398;7.024;2023-07-28T05:56:38;100299.06;;;20.52;100.00
58534;BME280;44109;52.398;7.024;2023-07-28T05:59:06;100288.03;;;20.58;100.00
58534;BME280;44109;52.398;7.024;2023-07-28T06:01:35;100287.31;;;20.79;100.00
58534;BME280;44109;52.398;7.024;2023-07-28T06:04:03;100289.84;;;21.12;100.00
58534;BME280;44109;52.398;7.024;2023-07-28T06:06:31;100286.56;;;21.26;100.00
58534;BME280;44109;52.398;7.024;2023-07-28T06:08:58;100285.41;;;21.36;100.00
58534;BME280;44109;52.398;7.024;2023-07-28T06:11:26;100284.44;;;21.74;100.00
58534;BME280;44109;52.398;7.024;2023-07-28T06:13:54;100281.56;;;21.65;100.00
58534;BME280;44109;52.398;7.024;2023-07-28T06:16:21;100292.19;;;21.61;100.00
58534;BME280;44109;52.398;7.024;2023-07-28T06:18:51;100282.22;;;21.69;100.00
58534;BME280;44109;52.398;7.024;2023-07-28T06:21:19;100290.50;;;21.85;100.00
58534;BME280;44109;52.398;7.024;2023-07-28T06:23:47;100289.97;;;21.77;100.00
58534;BME280;44109;52.398;7.024;2023-07-28T06:26:14;100289.78;;;21.94;100.00
58534;BME280;44109;52.398;7.024;2023-07-28T06:28:49;100302.06;;;22.22;100.00
58534;BME280;44109;52.398;7.024;2023-07-28T06:31:17;100305.47;;;22.17;100.00
58534;BME280;44109;52.398;7.024;2023-07-28T06:33:47;100311.97;;;22.26;100.00
58534;BME280;44109;52.398;7.024;2023-07-28T06:36:14;100315.97;;;22.16;100.00
58534;BME280;44109;52.398;7.024;2023-07-28T06:38:44;100313.97;;;22.17;100.00
58534;BME280;44109;52.398;7.024;2023-07-28T06:41:14;100322.28;;;21.98;100.00
58534;BME280;44109;52.398;7.024;2023-07-28T06:43:41;100322.59;;;22.00;100.00
58534;BME280;44109;52.398;7.024;2023-07-28T06:46:10;100326.78;;;21.74;100.00
58534;BME280;44109;52.398;7.024;2023-07-28T06:48:38;100326.94;;;21.92;100.00
58534;BME280;44109;52.398;7.024;2023-07-28T06:51:06;100326.69;;;22.21;100.00
58534;BME280;44109;52.398;7.024;2023-07-28T06:53:34;100332.06;;;22.60;100.00
58534;BME280;44109;52.398;7.024;2023-07-28T06:56:02;100329.88;;;22.33;100.00
58534;BME280;44109;52.398;7.024;2023-07-28T06:58:29;100334.59;;;22.58;100.00
58534;BME280;44109;52.398;7.024;2023-07-28T07:00:57;100339.41;;;22.57;100.00
58534;BME280;44109;52.398;7.024;2023-07-28T07:03:26;100325.13;;;22.51;100.00
58534;BME280;44109;52.398;7.024;2023-07-28T07:05:53;100351.59;;;22.14;100.00
58534;BME280;44109;52.398;7.024;2023-07-28T07:08:21;100354.28;;;21.95;100.00
58534;BME280;44109;52.398;7.024;2023-07-28T07:10:49;100359.84;;;21.86;100.00
58534;BME280;44109;52.398;7.024;2023-07-28T07:13:18;100360.94;;;21.67;100.00
58534;BME280;44109;52.398;7.024;2023-07-28T07:15:46;100364.84;;;21.82;100.00
58534;BME280;44109;52.398;7.024;2023-07-28T07:18:13;100372.31;;;21.98;100.00
58534;BME280;44109;52.398;7.024;2023-07-28T07:20:43;100378.78;;;21.98;100.00
58534;BME280;44109;52.398;7.024;2023-07-28T07:23:10;100372.34;;;22.20;100.00
58534;BME280;44109;52.398;7.024;2023-07-28T07:25:39;100372.75;;;22.31;100.00
58534;BME280;44109;52.398;7.024;2023-07-28T07:28:07;100379.00;;;22.26;100.00
58534;BME280;44109;52.398;7.024;2023-07-28T07:30:35;100375.81;;;22.24;100.00
58534;BME280;44109;52.398;7.024;2023-07-28T07:33:02;100383.41;;;22.27;100.00
58534;BME280;44109;52.398;7.024;2023-07-28T07:35:30;100378.63;;;22.46;100.00
58534;BME280;44109;52.398;7.024;2023-07-28T07:37:59;100377.31;;;22.60;100.00
58534;BME280;44109;52.398;7.024;2023-07-28T07:40:26;100384.53;;;22.61;100.00
58534;BME280;44109;52.398;7.024;2023-07-28T07:42:54;100373.25;;;22.70;100.00
58534;BME280;44109;52.398;7.024;2023-07-28T07:45:22;100386.31;;;22.98;100.00
58534;BME280;44109;52.398;7.024;2023-07-28T07:47:49;100383.84;;;23.19;100.00
58534;BME280;44109;52.398;7.024;2023-07-28T07:50:17;100382.75;;;23.25;100.00
58534;BME280;44109;52.398;7.024;2023-07-28T07:52:45;100384.13;;;23.12;100.00
58534;BME280;44109;52.398;7.024;2023-07-28T07:55:13;100389.00;;;23.11;100.00
58534;BME280;44109;52.398;7.024;2023-07-28T07:57:42;100394.97;;;23.04;100.00
58534;BME280;44109;52.398;7.024;2023-07-28T08:00:10;100396.03;;;22.97;100.00
58534;BME280;44109;52.398;7.024;2023-07-28T08:02:39;100394.47;;;22.96;100.00
58534;BME280;44109;52.398;7.024;2023-07-28T08:05:07;100399.34;;;22.96;100.00
58534;BME280;44109;52.398;7.024;2023-07-28T08:07:35;100396.88;;;22.76;100.00
58534;BME280;44109;52.398;7.024;2023-07-28T08:10:04;100404.06;;;22.99;100.00
58534;BME280;44109;52.398;7.024;2023-07-28T08:12:33;100403.19;;;23.29;100.00
58534;BME280;44109;52.398;7.024;2023-07-28T08:15:01;100397.38;;;23.24;100.00
58534;BME280;44109;52.398;7.024;2023-07-28T08:17:29;100410.50;;;22.99;100.00
58534;BME280;44109;52.398;7.024;2023-07-28T08:19:57;100414.09;;;22.69;100.00
58534;BME280;44109;52.398;7.024;2023-07-28T08:22:25;100410.16;;;22.66;100.00
58534;BME280;44109;52.398;7.024;2023-07-28T08:24:53;100411.41;;;22.65;100.00
58534;BME280;44109;52.398;7.024;2023-07-28T08:27:20;100423.78;;;22.59;100.00
58534;BME280;44109;52.398;7.024;2023-07-28T08:29:51;100424.38;;;22.53;100.00
58534;BME280;44109;52.398;7.024;2023-07-28T08:32:18;100417.78;;;22.57;100.00
58534;BME280;44109;52.398;7.024;2023-07-28T08:34:47;100425.88;;;22.89;100.00
58534;BME280;44109;52.398;7.024;2023-07-28T08:37:15;100415.88;;;23.07;100.00
58534;BME280;44109;52.398;7.024;2023-07-28T08:39:42;100429.75;;;23.14;100.00
58534;BME280;44109;52.398;7.024;2023-07-28T08:42:10;100422.56;;;23.31;100.00
58534;BME280;44109;52.398;7.024;2023-07-28T08:44:38;100426.59;;;23.21;100.00
58534;BME280;44109;52.398;7.024;2023-07-28T08:47:07;100423.28;;;23.13;100.00
58534;BME280;44109;52.398;7.024;2023-07-28T08:49:34;100429.75;;;23.23;100.00
58534;BME280;44109;52.398;7.024;2023-07-28T08:52:03;100430.38;;;23.18;100.00
58534;BME280;44109;52.398;7.024;2023-07-28T08:54:32;100441.13;;;23.32;100.00
58534;BME280;44109;52.398;7.024;2023-07-28T08:57:00;100444.25;;;23.34;100.00
58534;BME280;44109;52.398;7.024;2023-07-28T08:59:29;100438.72;;;23.21;100.00
58534;BME280;44109;52.398;7.024;2023-07-28T09:01:57;100449.88;;;22.85;100.00
58534;BME280;44109;52.398;7.024;2023-07-28T09:04:27;100449.63;;;22.48;100.00
58534;BME280;44109;52.398;7.024;2023-07-28T09:06:55;100456.19;;;22.23;100.00
58534;BME280;44109;52.398;7.024;2023-07-28T09:09:23;100457.00;;;22.45;100.00
58534;BME280;44109;52.398;7.024;2023-07-28T09:11:52;100450.84;;;22.69;100.00
58534;BME280;44109;52.398;7.024;2023-07-28T09:14:22;100453.75;;;22.56;100.00
58534;BME280;44109;52.398;7.024;2023-07-28T09:16:51;100454.88;;;22.59;100.00
58534;BME280;44109;52.398;7.024;2023-07-28T09:19:20;100456.56;;;22.78;100.00
58534;BME280;44109;52.398;7.024;2023-07-28T09:21:59;100454.00;;;22.71;100.00
58534;BME280;44109;52.398;7.024;2023-07-28T09:24:31;100452.34;;;22.83;100.00
58534;BME280;44109;52.398;7.024;2023-07-28T09:27:01;100461.69;;;22.92;100.00
58534;BME280;44109;52.398;7.024;2023-07-28T09:29:30;100458.44;;;22.94;100.00
58534;BME280;44109;52.398;7.024;2023-07-28T09:32:03;100456.59;;;23.09;100.00
58534;BME280;44109;52.398;7.024;2023-07-28T09:34:34;100467.41;;;22.79;100.00
58534;BME280;44109;52.398;7.024;2023-07-28T09:37:05;100464.03;;;22.63;100.00
58534;BME280;44109;52.398;7.024;2023-07-28T09:39:36;100462.50;;;22.27;100.00
58534;BME280;44109;52.398;7.024;2023-07-28T09:42:05;100470.34;;;22.67;100.00
58534;BME280;44109;52.398;7.024;2023-07-28T09:44:36;100466.31;;;22.55;100.00
58534;BME280;44109;52.398;7.024;2023-07-28T09:47:05;100468.16;;;22.27;100.00
58534;BME280;44109;52.398;7.024;2023-07-28T09:49:36;100474.88;;;22.42;100.00
58534;BME280;44109;52.398;7.024;2023-07-28T09:52:08;100477.31;;;22.53;100.00
58534;BME280;44109;52.398;7.024;2023-07-28T09:54:39;100476.72;;;22.36;100.00
58534;BME280;44109;52.398;7.024;2023-07-28T09:57:12;100490.63;;;22.52;100.00
58534;BME280;44109;52.398;7.024;2023-07-28T09:59:42;100492.63;;;22.65;100.00
58534;BME280;44109;52.398;7.024;2023-07-28T10:02:12;100483.81;;;22.41;100.00
58534;BME280;44109;52.398;7.024;2023-07-28T10:04:41;100489.84;;;22.52;100.00
58534;BME280;44109;52.398;7.024;2023-07-28T10:07:10;100487.50;;;22.72;100.00
58534;BME280;44109;52.398;7.024;2023-07-28T10:09:39;100489.59;;;22.81;100.00
58534;BME280;44109;52.398;7.024;2023-07-28T10:12:17;100484.41;;;23.11;100.00
58534;BME280;44109;52.398;7.024;2023-07-28T10:14:47;100492.28;;;23.16;100.00
58534;BME280;44109;52.398;7.024;2023-07-28T10:17:15;100485.25;;;23.20;100.00
58534;BME280;44109;52.398;7.024;2023-07-28T10:19:43;100490.22;;;23.47;100.00
58534;BME280;44109;52.398;7.024;2023-07-28T10:22:12;100489.47;;;23.16;100.00
58534;BME280;44109;52.398;7.024;2023-07-28T10:24:49;100502.16;;;22.58;100.00
58534;BME280;44109;52.398;7.024;2023-07-28T10:27:32;100502.94;;;22.59;100.00
58534;BME280;44109;52.398;7.024;2023-07-28T10:30:04;100502.63;;;22.35;100.00
58534;BME280;44109;52.398;7.024;2023-07-28T10:32:39;100506.41;;;22.19;100.00
58534;BME280;44109;52.398;7.024;2023-07-28T10:35:08;100516.13;;;22.18;100.00
58534;BME280;44109;52.398;7.024;2023-07-28T10:37:50;100505.25;;;22.16;100.00
58534;BME280;44109;52.398;7.024;2023-07-28T10:40:26;100505.09;;;22.33;100.00
58534;BME280;44109;52.398;7.024;2023-07-28T10:42:56;100505.66;;;22.62;100.00
58534;BME280;44109;52.398;7.024;2023-07-28T10:45:26;100507.91;;;22.89;100.00
58534;BME280;44109;52.398;7.024;2023-07-28T10:47:57;100505.97;;;22.64;100.00
58534;BME280;44109;52.398;7.024;2023-07-28T10:50:27;100502.66;;;22.66;100.00
58534;BME280;44109;52.398;7.024;2023-07-28T10:52:57;100500.97;;;22.68;100.00
58534;BME280;44109;52.398;7.024;2023-07-28T10:55:27;100497.59;;;22.61;100.00
58534;BME280;44109;52.398;7.024;2023-07-28T10:57:55;100505.31;;;22.82;100.00
58534;BME280;44109;52.398;7.024;2023-07-28T11:00:24;100510.09;;;22.72;100.00
58534;BME280;44109;52.398;7.024;2023-07-28T11:02:53;100501.16;;;22.74;100.00
58534;BME280;44109;52.398;7.024;2023-07-28T11:05:22;100511.94;;;22.88;100.00
58534;BME280;44109;52.398;7.024;2023-07-28T11:07:55;100515.28;;;22.74;100.00
58534;BME280;44109;52.398;7.024;2023-07-28T11:10:28;100504.03;;;22.83;100.00
58534;BME280;44109;52.398;7.024;2023-07-28T11:13:01;100507.41;;;22.69;100.00
58534;BME280;44109;52.398;7.024;2023-07-28T11:15:30;100512.41;;;22.65;100.00
58534;BME280;44109;52.398;7.024;2023-07-28T11:17:59;100511.63;;;22.64;100.00
58534;BME280;44109;52.398;7.024;2023-07-28T11:20:28;100523.00;;;22.51;100.00
58534;BME280;44109;52.398;7.024;2023-07-28T11:22:58;100520.00;;;22.33;100.00
58534;BME280;44109;52.398;7.024;2023-07-28T11:25:28;100514.91;;;22.41;100.00
58534;BME280;44109;52.398;7.024;2023-07-28T11:27:57;100507.66;;;22.62;100.00
58534;BME280;44109;52.398;7.024;2023-07-28T11:30:27;100507.09;;;22.67;100.00
58534;BME280;44109;52.398;7.024;2023-07-28T11:32:55;100505.91;;;22.77;100.00
58534;BME280;44109;52.398;7.024;2023-07-28T11:35:23;100508.88;;;22.95;100.00
58534;BME280;44109;52.398;7.024;2023-07-28T11:37:53;100512.72;;;23.11;100.00
58534;BME280;44109;52.398;7.024;2023-07-28T11:40:23;100505.94;;;23.39;100.00
58534;BME280;44109;52.398;7.024;2023-07-28T11:42:54;100492.94;;;23.60;100.00
58534;BME280;44109;52.398;7.024;2023-07-28T11:45:22;100490.72;;;23.55;100.00
58534;BME280;44109;52.398;7.024;2023-07-28T11:47:57;100494.44;;;23.83;100.00
58534;BME280;44109;52.398;7.024;2023-07-28T11:50:27;100498.72;;;24.15;100.00
58534;BME280;44109;52.398;7.024;2023-07-28T11:52:57;100492.13;;;24.55;100.00
58534;BME280;44109;52.398;7.024;2023-07-28T11:55:26;100494.81;;;24.68;100.00
58534;BME280;44109;52.398;7.024;2023-07-28T11:57:54;100496.69;;;24.62;100.00
58534;BME280;44109;52.398;7.024;2023-07-28T12:00:28;100489.41;;;24.79;100.00
58534;BME280;44109;52.398;7.024;2023-07-28T12:03:01;100478.56;;;24.68;100.00
58534;BME280;44109;52.398;7.024;2023-07-28T12:05:30;100487.75;;;25.15;100.00
58534;BME280;44109;52.398;7.024;2023-07-28T12:07:59;100481.59;;;25.07;100.00
58534;BME280;44109;52.398;7.024;2023-07-28T12:10:30;100489.63;;;25.27;100.00
58534;BME280;44109;52.398;7.024;2023-07-28T12:13:03;100484.31;;;25.11;100.00
58534;BME280;44109;52.398;7.024;2023-07-28T12:15:33;100489.88;;;24.87;100.00
58534;BME280;44109;52.398;7.024;2023-07-28T12:18:04;100491.53;;;25.21;100.00
58534;BME280;44109;52.398;7.024;2023-07-28T12:20:35;100505.19;;;25.65;100.00
58534;BME280;44109;52.398;7.024;2023-07-28T12:23:04;100484.81;;;25.99;100.00
58534;BME280;44109;52.398;7.024;2023-07-28T12:25:35;100490.56;;;26.53;100.00
58534;BME280;44109;52.398;7.024;2023-07-28T12:28:04;100478.72;;;26.30;100.00
58534;BME280;44109;52.398;7.024;2023-07-28T12:30:32;100483.91;;;26.71;100.00
58534;BME280;44109;52.398;7.024;2023-07-28T12:33:00;100479.72;;;26.42;100.00
58534;BME280;44109;52.398;7.024;2023-07-28T12:35:27;100483.69;;;26.45;100.00
58534;BME280;44109;52.398;7.024;2023-07-28T12:37:58;100481.91;;;26.47;100.00
58534;BME280;44109;52.398;7.024;2023-07-28T12:40:27;100479.72;;;26.42;100.00
58534;BME280;44109;52.398;7.024;2023-07-28T12:42:57;100477.72;;;26.19;100.00
58534;BME280;44109;52.398;7.024;2023-07-28T12:45:26;100483.84;;;26.41;100.00
58534;BME280;44109;52.398;7.024;2023-07-28T12:47:55;100483.91;;;26.32;100.00
58534;BME280;44109;52.398;7.024;2023-07-28T12:50:23;100470.75;;;26.44;100.00